createdAt,value
2022-08-09T00:00:15.774Z,98815.38
2022-08-09T00:04:00.363Z,98828.50
2022-08-09T00:06:19.472Z,98818.56
2022-08-09T00:08:48.281Z,98817.28
2022-08-09T00:11:24.517Z,98816.81
2022-08-09T00:13:53.662Z,98813.22
2022-08-09T00:16:25.875Z,98816.97
2022-08-09T00:19:09.510Z,98823.59
2022-08-09T00:21:38.819Z,98818.03
2022-08-09T00:24:27.340Z,98820.00
2022-08-09T00:26:55.884Z,98814.22
2022-08-09T00:29:39.146Z,98817.66
2022-08-09T00:32:13.633Z,98819.72
2022-08-09T00:34:56.554Z,98812.91
2022-08-09T00:37:26.622Z,98821.03
2022-08-09T00:40:08.965Z,98821.72
2022-08-09T00:44:14.425Z,98825.78
2022-08-09T00:45:28.113Z,98828.25
2022-08-09T00:47:55.873Z,98822.31
2022-08-09T00:50:24.331Z,98825.94
2022-08-09T00:52:53.846Z,98830.72
2022-08-09T00:56:03.734Z,98831.59
2022-08-09T00:58:14.823Z,98829.88
2022-08-09T01:00:53.372Z,98823.09
2022-08-09T01:03:29.021Z,98829.41
2022-08-09T01:06:18.257Z,98825.22
2022-08-09T01:08:55.680Z,98832.16
2022-08-09T01:11:35.386Z,98832.84
2022-08-09T01:14:08.288Z,98820.25
2022-08-09T01:16:47.179Z,98830.88
2022-08-09T01:19:42.728Z,98833.75
2022-08-09T01:22:54.786Z,98829.59
2022-08-09T01:25:42.063Z,98828.22
2022-08-09T01:28:18.502Z,98838.09
2022-08-09T01:30:52.693Z,98831.56
2022-08-09T01:33:24.926Z,98837.56
2022-08-09T01:36:00.636Z,98832.75
2022-08-09T01:38:30.814Z,98834.34
2022-08-09T01:41:05.728Z,98831.00
2022-08-09T01:43:42.042Z,98837.25
2022-08-09T01:46:25.295Z,98834.97
2022-08-09T01:49:00.036Z,98834.63
2022-08-09T01:51:32.199Z,98834.34
2022-08-09T01:54:04.113Z,98837.66
2022-08-09T01:56:34.305Z,98827.38
2022-08-09T01:59:09.035Z,98825.19
2022-08-09T02:01:59.382Z,98842.53
2022-08-09T02:04:28.737Z,98832.47
2022-08-09T02:08:35.184Z,98843.34
2022-08-09T02:10:07.965Z,98840.56
2022-08-09T02:12:39.420Z,98838.16
2022-08-09T02:15:11.905Z,98834.59
2022-08-09T02:18:09.589Z,98836.09
2022-08-09T02:20:36.812Z,98838.09
2022-08-09T02:23:16.906Z,98853.31
2022-08-09T02:25:49.640Z,98833.59
2022-08-09T02:28:24.367Z,98845.34
2022-08-09T02:31:01.386Z,98843.75
2022-08-09T02:33:37.836Z,98842.28
2022-08-09T02:36:28.423Z,98836.84
2022-08-09T02:39:01.675Z,98838.22
2022-08-09T02:41:37.568Z,98839.03
2022-08-09T02:44:10.568Z,98844.81
2022-08-09T02:46:58.217Z,98832.50
2022-08-09T02:49:38.153Z,98850.31
2022-08-09T02:52:08.710Z,98844.53
2022-08-09T02:54:54.052Z,98844.19
2022-08-09T02:57:25.409Z,98848.75
2022-08-09T03:00:21.546Z,98845.78
2022-08-09T03:02:58.589Z,98859.00
2022-08-09T03:05:34.564Z,98858.31
2022-08-09T03:08:05.360Z,98855.09
2022-08-09T03:10:36.386Z,98866.06
2022-08-09T03:13:08.488Z,98870.16
2022-08-09T03:16:04.874Z,98871.75
2022-08-09T03:18:30.605Z,98867.16
2022-08-09T03:21:02.844Z,98864.19
2022-08-09T03:23:31.542Z,98861.53
2022-08-09T03:26:03.708Z,98859.41
2022-08-09T03:28:35.172Z,98851.53
2022-08-09T03:31:09.928Z,98861.69
2022-08-09T03:33:53.416Z,98858.59
2022-08-09T03:36:27.432Z,98855.84
2022-08-09T03:38:56.544Z,98868.25
2022-08-09T03:41:30.143Z,98861.28
2022-08-09T03:44:12.782Z,98865.47
2022-08-09T03:46:40.566Z,98862.19
2022-08-09T03:49:10.710Z,98857.50
2022-08-09T03:51:55.267Z,98862.19
2022-08-09T03:54:31.659Z,98851.81
2022-08-09T03:57:04.015Z,98861.84
2022-08-09T03:59:53.905Z,98856.81
2022-08-09T04:02:26.986Z,98857.69
2022-08-09T04:04:58.559Z,98858.84
2022-08-09T04:07:33.698Z,98855.69
2022-08-09T04:10:18.300Z,98860.91
2022-08-09T04:12:50.949Z,98870.38
2022-08-09T04:15:39.020Z,98867.72
2022-08-09T04:18:09.352Z,98869.75
2022-08-09T04:20:46.320Z,98868.25
2022-08-09T04:23:16.820Z,98875.44
2022-08-09T04:25:52.312Z,98881.13
2022-08-09T04:28:31.362Z,98880.44
2022-08-09T04:31:05.731Z,98879.91
2022-08-09T04:33:51.684Z,98876.22
2022-08-09T04:36:26.140Z,98881.88
2022-08-09T04:38:55.073Z,98883.25
2022-08-09T04:41:24.432Z,98886.69
2022-08-09T04:44:06.865Z,98876.66
2022-08-09T04:46:59.089Z,98879.59
2022-08-09T04:49:40.820Z,98877.91
2022-08-09T04:52:18.520Z,98868.09
2022-08-09T04:54:52.404Z,98880.75
2022-08-09T04:57:23.770Z,98877.56
2022-08-09T04:59:53.973Z,98862.41
2022-08-09T05:02:22.136Z,98883.56
2022-08-09T05:04:55.036Z,98881.72
2022-08-09T05:07:29.162Z,98881.63
2022-08-09T05:10:01.820Z,98883.13
2022-08-09T05:12:33.167Z,98890.66
2022-08-09T05:15:11.557Z,98891.00
2022-08-09T05:18:39.507Z,98897.31
2022-08-09T05:20:39.946Z,98901.13
2022-08-09T05:23:54.577Z,98893.81
2022-08-09T05:25:57.325Z,98899.56
2022-08-09T05:28:27.429Z,98898.91
2022-08-09T05:30:55.191Z,98904.56
2022-08-09T05:33:26.382Z,98898.63
2022-08-09T05:36:01.888Z,98905.44
2022-08-09T05:38:31.438Z,98898.63
2022-08-09T05:41:00.026Z,98890.94
2022-08-09T05:43:28.957Z,98900.19
2022-08-09T05:45:59.551Z,98896.72
2022-08-09T05:48:32.880Z,98902.94
2022-08-09T05:51:42.906Z,98911.22
2022-08-09T05:53:57.388Z,98911.97
2022-08-09T05:56:28.091Z,98922.81
2022-08-09T05:58:58.612Z,98906.44
2022-08-09T06:01:33.718Z,98907.66
2022-08-09T06:04:05.639Z,98911.78
2022-08-09T06:06:34.585Z,98916.78
2022-08-09T06:09:09.978Z,98904.69
2022-08-09T06:11:57.225Z,98914.69
2022-08-09T06:14:26.281Z,98920.16
2022-08-09T06:16:57.252Z,98909.22
2022-08-09T06:19:25.258Z,98914.09
2022-08-09T06:21:58.920Z,98914.91
2022-08-09T06:24:28.887Z,98908.56
2022-08-09T06:26:57.285Z,98913.44
2022-08-09T06:29:26.963Z,98914.50
2022-08-09T06:32:24.629Z,98912.88
2022-08-09T06:34:43.211Z,98912.97
2022-08-09T06:37:11.166Z,98909.97
2022-08-09T06:39:57.819Z,98907.84
2022-08-09T06:42:30.935Z,98913.00
2022-08-09T06:45:52.131Z,98923.59
2022-08-09T06:47:57.992Z,98925.91
2022-08-09T06:50:31.208Z,98919.72
2022-08-09T06:53:01.760Z,98925.00
2022-08-09T06:55:33.027Z,98921.97
2022-08-09T06:58:04.493Z,98926.81
2022-08-09T07:00:51.955Z,98939.44
2022-08-09T07:03:27.637Z,98931.22
2022-08-09T07:06:03.756Z,98938.16
2022-08-09T07:08:37.304Z,98933.53
2022-08-09T07:11:12.395Z,98926.81
2022-08-09T07:14:00.236Z,98938.72
2022-08-09T07:16:42.429Z,98938.75
2022-08-09T07:19:18.828Z,98943.13
2022-08-09T07:21:57.185Z,98943.91
2022-08-09T07:24:32.792Z,98950.69
2022-08-09T07:27:26.383Z,98944.44
2022-08-09T07:30:00.948Z,98953.28
2022-08-09T07:32:33.236Z,98951.72
2022-08-09T07:35:08.035Z,98946.56
2022-08-09T07:37:44.569Z,98948.97
2022-08-09T07:40:16.942Z,98951.78
2022-08-09T07:42:51.266Z,98952.56
2022-08-09T07:45:38.417Z,98946.31
2022-08-09T07:48:25.851Z,98955.41
2022-08-09T07:51:09.639Z,98952.69
2022-08-09T07:54:05.190Z,98954.28
2022-08-09T07:56:36.042Z,98957.44
2022-08-09T07:59:12.593Z,98965.78
2022-08-09T08:01:53.001Z,98965.38
2022-08-09T08:04:31.305Z,98966.19
2022-08-09T08:07:09.315Z,98969.34
2022-08-09T08:09:51.481Z,98965.78
2022-08-09T08:12:37.164Z,98963.41
2022-08-09T08:15:13.780Z,98960.63
2022-08-09T08:17:53.942Z,98964.59
2022-08-09T08:20:27.227Z,98965.31
2022-08-09T08:23:06.394Z,98967.34
2022-08-09T08:25:46.477Z,98972.91
2022-08-09T08:28:18.148Z,98970.91
2022-08-09T08:30:55.086Z,98965.00
2022-08-09T08:33:24.747Z,98974.06
2022-08-09T08:35:59.143Z,98970.00
2022-08-09T08:38:28.398Z,98973.88
2022-08-09T08:40:58.243Z,98965.97
2022-08-09T08:43:27.401Z,98968.72
2022-08-09T08:46:03.735Z,98971.34
2022-08-09T08:48:38.434Z,98973.59
2022-08-09T08:51:19.732Z,98975.06
2022-08-09T08:54:03.187Z,98974.19
2022-08-09T08:56:35.609Z,98966.41
2022-08-09T08:59:07.808Z,98971.94
2022-08-09T09:01:53.371Z,98975.44
2022-08-09T09:04:29.774Z,98973.91
2022-08-09T09:07:03.882Z,98980.34
2022-08-09T09:09:58.333Z,98972.22
2022-08-09T09:12:30.893Z,98971.94
2022-08-09T09:15:02.547Z,98965.16
2022-08-09T09:17:49.046Z,98968.16
2022-08-09T09:20:21.312Z,98967.16
2022-08-09T09:22:55.531Z,98977.31
2022-08-09T09:26:04.509Z,98970.06
2022-08-09T09:29:02.924Z,98980.41
2022-08-09T09:31:17.489Z,98972.25
2022-08-09T09:34:15.331Z,98972.97
2022-08-09T09:36:52.884Z,98973.91
2022-08-09T09:39:42.783Z,98976.09
2022-08-09T09:42:23.012Z,98974.50
2022-08-09T09:44:57.951Z,98982.91
2022-08-09T09:47:28.542Z,98966.78
2022-08-09T09:50:15.053Z,98970.88
2022-08-09T09:52:52.447Z,98971.44
2022-08-09T09:55:27.770Z,98975.00
2022-08-09T09:58:03.177Z,98969.22
2022-08-09T10:00:52.979Z,98968.53
2022-08-09T10:03:58.121Z,98970.56
2022-08-09T10:06:38.850Z,98965.50
2022-08-09T10:09:22.249Z,98979.00
2022-08-09T10:12:04.394Z,98968.53
2022-08-09T10:14:48.050Z,98971.06
2022-08-09T10:17:50.307Z,98959.56
2022-08-09T10:20:32.288Z,98961.94
2022-08-09T10:23:16.965Z,98962.75
2022-08-09T10:26:05.971Z,98963.47
2022-08-09T10:28:35.744Z,98953.16
2022-08-09T10:34:09.260Z,98960.31
2022-08-09T10:36:42.283Z,98956.56
2022-08-09T10:39:15.553Z,98954.97
2022-08-09T10:41:46.179Z,98967.06
2022-08-09T10:44:19.244Z,98961.47
2022-08-09T10:48:20.498Z,98959.84
2022-08-09T10:50:26.979Z,98952.97
2022-08-09T10:53:10.510Z,98946.81
2022-08-09T10:55:55.304Z,98957.84
2022-08-09T10:58:33.711Z,98943.44
2022-08-09T11:03:03.192Z,98954.59
2022-08-09T11:04:30.422Z,98957.41
2022-08-09T11:07:56.599Z,98953.50
2022-08-09T11:10:18.536Z,98950.88
2022-08-09T11:13:49.272Z,98947.06
2022-08-09T11:16:36.207Z,98951.91
2022-08-09T11:19:07.875Z,98946.56
2022-08-09T11:21:55.107Z,98953.91
2022-08-09T11:25:04.275Z,98944.66
2022-08-09T11:28:05.589Z,98937.88
2022-08-09T11:30:35.875Z,98937.69
2022-08-09T11:33:06.331Z,98933.88
2022-08-09T11:35:48.983Z,98940.38
2022-08-09T11:38:22.060Z,98942.09
2022-08-09T11:40:53.080Z,98938.25
2022-08-09T11:43:43.992Z,98938.19
2022-08-09T11:46:26.608Z,98930.97
2022-08-09T11:49:04.976Z,98929.03
2022-08-09T11:53:03.081Z,98923.63
2022-08-09T11:55:52.519Z,98920.13
2022-08-09T11:58:41.784Z,98922.41
2022-08-09T12:02:01.023Z,98911.94
2022-08-09T12:04:20.792Z,98912.84
2022-08-09T12:06:57.120Z,98921.72
2022-08-09T12:09:33.985Z,98912.34
2022-08-09T12:12:06.045Z,98915.81
2022-08-09T12:15:04.410Z,98922.94
2022-08-09T12:17:42.978Z,98922.88
2022-08-09T12:20:16.763Z,98922.22
2022-08-09T12:22:50.900Z,98921.25
2022-08-09T12:25:35.991Z,98904.63
2022-08-09T12:29:13.979Z,98912.63
2022-08-09T12:31:01.306Z,98913.06
2022-08-09T12:33:51.366Z,98913.66
2022-08-09T12:36:31.376Z,98904.22
2022-08-09T12:39:01.427Z,98904.91
2022-08-09T12:41:38.135Z,98907.63
2022-08-09T12:44:10.037Z,98913.34
2022-08-09T12:46:46.523Z,98892.97
2022-08-09T12:49:17.907Z,98899.50
2022-08-09T12:52:01.039Z,98889.63
2022-08-09T12:56:10.814Z,98892.66
2022-08-09T12:57:39.776Z,98890.09
2022-08-09T13:00:17.410Z,98899.88
2022-08-09T13:02:49.346Z,98902.72
2022-08-09T13:05:25.340Z,98891.81
2022-08-09T13:08:15.103Z,98888.38
2022-08-09T13:10:52.472Z,98894.31
2022-08-09T13:14:01.022Z,98896.59
2022-08-09T13:16:21.248Z,98895.03
2022-08-09T13:18:53.807Z,98891.88
2022-08-09T13:22:36.094Z,98891.59
2022-08-09T13:24:44.318Z,98896.88
2022-08-09T13:27:01.690Z,98897.16
2022-08-09T13:30:03.184Z,98887.88
2022-08-09T13:32:28.933Z,98893.13
2022-08-09T13:34:57.301Z,98897.25
2022-08-09T13:37:52.269Z,98892.25
2022-08-09T13:41:56.385Z,98890.56
2022-08-09T13:43:03.484Z,98892.47
2022-08-09T13:46:43.633Z,98888.22
2022-08-09T13:48:22.894Z,98893.06
2022-08-09T13:50:52.814Z,98880.34
2022-08-09T13:53:20.579Z,98886.53
2022-08-09T13:56:11.088Z,98888.78
2022-08-09T13:58:39.741Z,98881.94
2022-08-09T14:01:13.613Z,98888.47
2022-08-09T14:04:04.871Z,98897.63
2022-08-09T14:06:36.943Z,98884.94
2022-08-09T14:09:07.682Z,98886.16
2022-08-09T14:11:47.114Z,98893.47
2022-08-09T14:14:26.703Z,98887.09
2022-08-09T14:16:58.639Z,98887.50
2022-08-09T14:19:33.119Z,98887.91
2022-08-09T14:22:01.809Z,98886.78
2022-08-09T14:24:32.095Z,98886.97
2022-08-09T14:27:01.359Z,98880.59
2022-08-09T14:30:36.005Z,98879.34
2022-08-09T14:32:26.040Z,98875.47
2022-08-09T14:34:58.971Z,98871.88
2022-08-09T14:37:28.140Z,98872.44
2022-08-09T14:39:56.958Z,98877.38
2022-08-09T14:42:30.232Z,98867.84
2022-08-09T14:46:46.334Z,98876.34
2022-08-09T14:47:58.661Z,98876.31
2022-08-09T14:50:30.689Z,98875.53
2022-08-09T14:53:00.723Z,98873.56
2022-08-09T14:55:32.415Z,98865.06
2022-08-09T14:58:05.225Z,98874.16
2022-08-09T15:00:34.177Z,98867.72
2022-08-09T15:03:04.845Z,98871.84
2022-08-09T15:05:33.270Z,98875.31
2022-08-09T15:08:01.236Z,98854.22
2022-08-09T15:10:31.642Z,98868.97
2022-08-09T15:13:01.424Z,98865.69
2022-08-09T15:15:34.468Z,98874.09
2022-08-09T15:18:14.273Z,98877.03
2022-08-09T15:21:58.457Z,98869.81
2022-08-09T15:24:00.874Z,98878.03
2022-08-09T15:26:31.332Z,98875.97
2022-08-09T15:29:04.877Z,98881.94
2022-08-09T15:31:40.915Z,98881.81
2022-08-09T15:34:32.123Z,98874.94
2022-08-09T15:37:01.177Z,98879.47
2022-08-09T15:39:43.849Z,98889.44
2022-08-09T15:42:21.788Z,98881.75
2022-08-09T15:44:49.836Z,98882.56
2022-08-09T15:47:22.853Z,98889.00
2022-08-09T15:50:04.974Z,98885.88
2022-08-09T15:52:35.366Z,98882.69
2022-08-09T15:55:05.659Z,98877.94
2022-08-09T15:57:34.307Z,98877.16
2022-08-09T16:00:03.525Z,98880.44
2022-08-09T16:02:31.874Z,98884.88
2022-08-09T16:05:04.097Z,98883.09
2022-08-09T16:07:39.064Z,98881.97
2022-08-09T16:10:11.100Z,98888.84
2022-08-09T16:12:50.526Z,98877.84
2022-08-09T16:16:04.383Z,98880.22
2022-08-09T16:18:10.200Z,98882.63
2022-08-09T16:20:41.561Z,98876.22
2022-08-09T16:23:11.184Z,98879.31
2022-08-09T16:25:40.824Z,98882.56
2022-08-09T16:28:12.181Z,98876.91
2022-08-09T16:30:44.826Z,98876.84
2022-08-09T16:33:26.485Z,98872.34
2022-08-09T16:36:00.951Z,98871.13
2022-08-09T16:38:32.444Z,98881.88
2022-08-09T16:41:04.074Z,98883.84
2022-08-09T16:43:32.050Z,98879.03
2022-08-09T16:45:59.915Z,98879.03
2022-08-09T16:48:39.161Z,98879.13
2022-08-09T16:51:15.301Z,98884.78
2022-08-09T16:54:09.164Z,98875.22
2022-08-09T16:56:32.726Z,98890.25
2022-08-09T16:59:10.221Z,98890.19
2022-08-09T17:01:39.038Z,98896.38
2022-08-09T17:04:11.339Z,98897.09
2022-08-09T17:08:41.331Z,98887.31
2022-08-09T17:09:47.229Z,98897.59
2022-08-09T17:12:16.114Z,98874.50
2022-08-09T17:14:47.944Z,98892.47
2022-08-09T17:17:26.868Z,98892.50
2022-08-09T17:20:28.646Z,98899.50
2022-08-09T17:22:49.995Z,98897.03
2022-08-09T17:25:19.517Z,98907.56
2022-08-09T17:27:49.254Z,98907.88
2022-08-09T17:30:25.985Z,98906.56
2022-08-09T17:33:00.732Z,98913.84
2022-08-09T17:35:35.252Z,98905.66
2022-08-09T17:38:24.269Z,98911.31
2022-08-09T17:40:58.172Z,98912.63
2022-08-09T17:43:33.699Z,98908.69
2022-08-09T17:46:07.085Z,98916.28
2022-08-09T17:48:38.836Z,98914.38
2022-08-09T17:51:17.546Z,98903.38
2022-08-09T17:53:52.999Z,98919.28
2022-08-09T17:56:27.286Z,98914.56
2022-08-09T17:58:58.744Z,98920.13
2022-08-09T18:01:57.769Z,98925.72
2022-08-09T18:04:16.195Z,98928.91
2022-08-09T18:06:54.282Z,98932.88
2022-08-09T18:09:40.206Z,98927.34
2022-08-09T18:12:15.076Z,98939.22
2022-08-09T18:14:50.041Z,98934.88
2022-08-09T18:18:02.187Z,98945.56
2022-08-09T18:20:56.441Z,98938.47
2022-08-09T18:23:07.105Z,98941.63
2022-08-09T18:25:52.885Z,98948.38
2022-08-09T18:30:36.401Z,98946.78
2022-08-09T18:31:12.565Z,98953.50
2022-08-09T18:33:40.757Z,98948.75
2022-08-09T18:36:14.335Z,98952.28
2022-08-09T18:39:00.737Z,98953.50
2022-08-09T18:41:34.265Z,98957.44
2022-08-09T18:44:12.953Z,98957.38
2022-08-09T18:46:46.488Z,98963.28
2022-08-09T18:49:31.846Z,98964.06
2022-08-09T18:52:00.140Z,98966.81
2022-08-09T18:54:30.165Z,98977.88
2022-08-09T18:57:05.126Z,98974.31
2022-08-09T18:59:48.515Z,98974.69
2022-08-09T19:02:18.110Z,98983.81
2022-08-09T19:04:47.476Z,98982.22
2022-08-09T19:07:16.662Z,98979.47
2022-08-09T19:10:14.044Z,98983.84
2022-08-09T19:12:37.286Z,98968.03
2022-08-09T19:15:08.151Z,98986.19
2022-08-09T19:17:54.525Z,98979.09
2022-08-09T19:20:25.412Z,98976.34
2022-08-09T19:22:54.585Z,98979.88
2022-08-09T19:25:41.798Z,98976.69
2022-08-09T19:28:13.598Z,98971.94
2022-08-09T19:30:44.602Z,98976.66
2022-08-09T19:33:19.411Z,98979.03
2022-08-09T19:35:58.298Z,98987.28
2022-08-09T19:38:27.861Z,98984.47
2022-08-09T19:40:57.627Z,98985.63
2022-08-09T19:43:57.925Z,98977.31
2022-08-09T19:46:17.505Z,98991.50
2022-08-09T19:50:05.318Z,98974.84
2022-08-09T19:51:55.474Z,98985.31
2022-08-09T19:54:25.039Z,98976.22
2022-08-09T19:56:53.057Z,98973.38
2022-08-09T19:59:57.529Z,98978.41
2022-08-09T20:04:07.039Z,98977.63
2022-08-09T20:05:01.231Z,98968.13
2022-08-09T20:07:56.867Z,98978.78
2022-08-09T20:10:22.099Z,98979.13
2022-08-09T20:12:51.991Z,98986.97
2022-08-09T20:16:37.770Z,98981.09
2022-08-09T20:18:10.207Z,98981.47
2022-08-09T20:20:40.206Z,98987.75
2022-08-09T20:23:09.196Z,98990.13
2022-08-09T20:25:38.268Z,98992.84
2022-08-09T20:28:28.176Z,98988.47
2022-08-09T20:31:04.827Z,98997.19
2022-08-09T20:33:38.914Z,98983.28
2022-08-09T20:36:10.170Z,98993.94
2022-08-09T20:39:18.638Z,98994.31
2022-08-09T20:41:32.216Z,98997.91
2022-08-09T20:44:03.377Z,99001.44
2022-08-09T20:46:41.970Z,99008.13
2022-08-09T20:49:11.929Z,98997.91
2022-08-09T20:51:41.590Z,98985.03
2022-08-09T20:54:12.719Z,99002.31
2022-08-09T20:56:46.703Z,98992.28
2022-08-09T20:59:16.839Z,99003.06
2022-08-09T21:01:50.352Z,99006.88
2022-08-09T21:05:53.956Z,99008.81
2022-08-09T21:07:11.962Z,99000.00
2022-08-09T21:09:55.698Z,98995.59
2022-08-09T21:15:15.430Z,98986.75
2022-08-09T21:18:29.758Z,99001.88
2022-08-09T21:20:35.580Z,99002.19
2022-08-09T21:23:04.685Z,98996.69
2022-08-09T21:25:55.996Z,98997.47
2022-08-09T21:28:33.383Z,98996.69
2022-08-09T21:31:02.144Z,99001.88
2022-08-09T21:33:49.410Z,98990.59
2022-08-09T21:36:23.107Z,99002.09
2022-08-09T21:38:57.338Z,99008.84
2022-08-09T21:42:00.349Z,99001.03
2022-08-09T21:44:34.672Z,99007.75
2022-08-09T21:47:05.228Z,99001.88
2022-08-09T21:49:40.541Z,99000.00
2022-08-09T21:52:14.821Z,98990.56
2022-08-09T21:54:49.492Z,98995.66
2022-08-09T21:57:39.532Z,98992.09
2022-08-09T22:00:16.928Z,98995.22
2022-08-09T22:02:51.187Z,98995.22
2022-08-09T22:05:37.593Z,98992.03
2022-08-09T22:08:13.810Z,98991.25
2022-08-09T22:11:49.498Z,98987.63
2022-08-09T22:13:34.547Z,98994.66
2022-08-09T22:16:07.904Z,98990.66
2022-08-09T22:18:37.635Z,98994.94
2022-08-09T22:21:09.681Z,98993.78
2022-08-09T22:24:01.131Z,98987.41
2022-08-09T22:26:34.919Z,98992.69
2022-08-09T22:29:08.745Z,98992.91
2022-08-09T22:31:37.221Z,98993.06
2022-08-09T22:34:09.874Z,98979.81
2022-08-09T22:36:46.444Z,98982.25
2022-08-09T22:39:20.778Z,98981.06
2022-08-09T22:42:16.190Z,98978.47
2022-08-09T22:44:49.840Z,98977.34
2022-08-09T22:48:11.135Z,98993.41
2022-08-09T22:50:25.858Z,98985.88
2022-08-09T22:52:57.942Z,98983.81
2022-08-09T22:55:29.637Z,98986.84
2022-08-09T22:58:07.957Z,98987.22
2022-08-09T23:00:37.440Z,98986.44
2022-08-09T23:03:12.536Z,98988.66
2022-08-09T23:05:41.001Z,99002.31
2022-08-09T23:08:33.385Z,99000.97
2022-08-09T23:11:02.362Z,98996.19
2022-08-09T23:13:30.229Z,98987.34
2022-08-09T23:16:03.236Z,98987.34
2022-08-09T23:18:31.929Z,98996.81
2022-08-09T23:20:59.687Z,98979.63
2022-08-09T23:23:28.868Z,98995.50
2022-08-09T23:25:57.297Z,98992.72
2022-08-09T23:28:25.159Z,98979.25
2022-08-09T23:30:53.232Z,98988.19
2022-08-09T23:33:22.056Z,98980.94
2022-08-09T23:36:05.602Z,98987.22
2022-08-09T23:38:48.487Z,98982.69
2022-08-09T23:41:28.518Z,98978.09
2022-08-09T23:43:59.120Z,98978.97
2022-08-09T23:46:27.311Z,98977.94
2022-08-09T23:48:55.166Z,98977.09
2022-08-09T23:51:23.590Z,98986.25
2022-08-09T23:53:55.082Z,98989.16
2022-08-09T23:56:39.560Z,98982.47
2022-08-09T23:59:11.656Z,98983.28
